Bradford Regional Airport Bradford US
ICAO: KBFD
IATA: BFD
Category: Medium
Scheduled Services: Yes

Elevation: 2143 ft
TransAlt. 18000 ft.

Airport Communications:
ASOS:133.825
CLEVELAND CNTR:124.325
ALTOONA RDO:122.2
CTAF/UNICOM:123.075

KBFD Zoom In..

Runways:

(A) RW 05 length 4499 ft width 100 ft
---- / hdg 55

(B) RW 14 length 6306 ft width 150 ft
---- / hdg 145

(C) RW 23 length 4499 ft width 100 ft
---- / hdg 235

(D) RW 32 length 6306 ft width 150 ft
ILS 108.30 / hdg 325

Location; KBFD
Day. 21 / Time. 05.53 Zulu
* Altimeter: 30.01
* Temperature: 19° c. 66.2°f.
* Wind from: 150° Speed 08 kn with Gusts up to 16 kn.
Dewpoint: 13° c.
Visibility: 10 Statute Miles.
Clouds: Broken 9000 ft.

KBFD 210553Z AUTO 15008G16KT 10SM BKN090 19/13 A3001 RMK AO2 SLP145 T01940128 10239 20194 58000


Wind From 150°
Speed 08 kn.

 
 
jpsmedia.com for Web Design worldairports.se 2018   terms of use